Terminal Aerodrome Forecast
Issued by NWS Cleveland, OH

Home | Current Version | Previous Version | Text Only | Print | Product List | Glossary On
Versions: 1 2 3 4 5 6 7 8 9 10 11 12 13 14 15 16 17 18 19 20 21 22 23 24 25 26 27 28 29 30
882
FTUS41 KCLE 232057 AAC
TAFCLE
TAF AMD
KCLE 232057Z 2321/2424 02012KT P6SM BKN200
     FM240000 15004KT P6SM BKN200
     FM240300 14005KT P6SM BKN200
     FM241400 14010KT P6SM VCSH BKN040 OVC070
     FM242300 10012KT 6SM -SHRA VCTS BKN025CB OVC060=

USA.gov is the U.S. government's official web portal to all federal, state and local government web resources and services.